sensor_id;sensor_type;location;lat;lon;timestamp;P1;durP1;ratioP1;P2;durP2;ratioP2
58240;SDS011;45058;55.772;38.224;2024-02-26T00:00:00;9.07;;;4.77;;
58240;SDS011;45058;55.772;38.224;2024-02-26T00:02:26;10.97;;;4.13;;
58240;SDS011;45058;55.772;38.224;2024-02-26T00:04:52;11.13;;;4.30;;
58240;SDS011;45058;55.772;38.224;2024-02-26T00:07:18;8.23;;;4.20;;
58240;SDS011;45058;55.772;38.224;2024-02-26T00:09:44;8.50;;;4.37;;
58240;SDS011;45058;55.772;38.224;2024-02-26T00:12:10;9.87;;;4.63;;
58240;SDS011;45058;55.772;38.224;2024-02-26T00:14:36;8.13;;;4.20;;
58240;SDS011;45058;55.772;38.224;2024-02-26T00:17:02;6.17;;;3.60;;
58240;SDS011;45058;55.772;38.224;2024-02-26T00:19:28;8.47;;;4.30;;
58240;SDS011;45058;55.772;38.224;2024-02-26T00:21:54;8.03;;;4.07;;
58240;SDS011;45058;55.772;38.224;2024-02-26T00:24:21;7.27;;;4.10;;
58240;SDS011;45058;55.772;38.224;2024-02-26T00:26:47;12.27;;;4.33;;
58240;SDS011;45058;55.772;38.224;2024-02-26T00:29:18;7.27;;;3.47;;
58240;SDS011;45058;55.772;38.224;2024-02-26T00:31:45;8.57;;;3.90;;
58240;SDS011;45058;55.772;38.224;2024-02-26T00:34:11;7.47;;;3.80;;
58240;SDS011;45058;55.772;38.224;2024-02-26T00:36:37;9.87;;;4.53;;
58240;SDS011;45058;55.772;38.224;2024-02-26T00:39:03;9.73;;;3.53;;
58240;SDS011;45058;55.772;38.224;2024-02-26T00:41:29;7.83;;;3.90;;
58240;SDS011;45058;55.772;38.224;2024-02-26T00:43:55;10.70;;;4.00;;
58240;SDS011;45058;55.772;38.224;2024-02-26T00:46:21;10.43;;;3.83;;
58240;SDS011;45058;55.772;38.224;2024-02-26T00:48:47;7.07;;;3.27;;
58240;SDS011;45058;55.772;38.224;2024-02-26T00:51:13;7.83;;;4.00;;
58240;SDS011;45058;55.772;38.224;2024-02-26T00:53:40;12.93;;;3.73;;
58240;SDS011;45058;55.772;38.224;2024-02-26T00:56:06;10.90;;;3.73;;
58240;SDS011;45058;55.772;38.224;2024-02-26T00:58:32;12.73;;;4.23;;
58240;SDS011;45058;55.772;38.224;2024-02-26T01:00:58;9.03;;;3.50;;
58240;SDS011;45058;55.772;38.224;2024-02-26T01:03:24;13.90;;;4.03;;
58240;SDS011;45058;55.772;38.224;2024-02-26T01:05:51;8.13;;;3.67;;
58240;SDS011;45058;55.772;38.224;2024-02-26T01:08:17;6.17;;;3.30;;
58240;SDS011;45058;55.772;38.224;2024-02-26T01:10:43;5.97;;;3.40;;
58240;SDS011;45058;55.772;38.224;2024-02-26T01:13:09;9.20;;;3.60;;
58240;SDS011;45058;55.772;38.224;2024-02-26T01:15:35;11.47;;;3.80;;
58240;SDS011;45058;55.772;38.224;2024-02-26T01:18:01;7.53;;;3.53;;
58240;SDS011;45058;55.772;38.224;2024-02-26T01:20:27;7.30;;;3.20;;
58240;SDS011;45058;55.772;38.224;2024-02-26T01:22:53;7.30;;;3.83;;
58240;SDS011;45058;55.772;38.224;2024-02-26T01:25:19;8.73;;;3.80;;
58240;SDS011;45058;55.772;38.224;2024-02-26T01:27:45;6.50;;;3.50;;
58240;SDS011;45058;55.772;38.224;2024-02-26T01:30:11;6.93;;;3.07;;
58240;SDS011;45058;55.772;38.224;2024-02-26T01:32:37;6.17;;;3.50;;
58240;SDS011;45058;55.772;38.224;2024-02-26T01:35:03;8.00;;;3.67;;
58240;SDS011;45058;55.772;38.224;2024-02-26T01:37:30;8.77;;;3.93;;
58240;SDS011;45058;55.772;38.224;2024-02-26T01:39:56;8.87;;;3.33;;
58240;SDS011;45058;55.772;38.224;2024-02-26T01:42:22;14.07;;;3.73;;
58240;SDS011;45058;55.772;38.224;2024-02-26T01:44:48;6.97;;;3.00;;
58240;SDS011;45058;55.772;38.224;2024-02-26T01:47:14;7.47;;;3.80;;
58240;SDS011;45058;55.772;38.224;2024-02-26T01:49:41;6.37;;;2.70;;
58240;SDS011;45058;55.772;38.224;2024-02-26T01:52:08;9.07;;;3.40;;
58240;SDS011;45058;55.772;38.224;2024-02-26T01:54:35;9.17;;;3.10;;
58240;SDS011;45058;55.772;38.224;2024-02-26T01:57:02;7.13;;;3.13;;
58240;SDS011;45058;55.772;38.224;2024-02-26T01:59:29;27.40;;;3.63;;
58240;SDS011;45058;55.772;38.224;2024-02-26T02:01:57;8.30;;;3.47;;
58240;SDS011;45058;55.772;38.224;2024-02-26T02:04:24;7.30;;;2.90;;
58240;SDS011;45058;55.772;38.224;2024-02-26T02:06:50;8.93;;;3.33;;
58240;SDS011;45058;55.772;38.224;2024-02-26T02:09:17;11.80;;;3.43;;
58240;SDS011;45058;55.772;38.224;2024-02-26T02:11:44;6.73;;;3.10;;
58240;SDS011;45058;55.772;38.224;2024-02-26T02:14:10;6.97;;;2.67;;
58240;SDS011;45058;55.772;38.224;2024-02-26T02:16:36;5.87;;;2.93;;
58240;SDS011;45058;55.772;38.224;2024-02-26T02:19:02;7.03;;;3.07;;
58240;SDS011;45058;55.772;38.224;2024-02-26T02:21:28;8.23;;;3.50;;
58240;SDS011;45058;55.772;38.224;2024-02-26T02:23:54;6.23;;;2.90;;
58240;SDS011;45058;55.772;38.224;2024-02-26T02:26:20;7.30;;;3.57;;
58240;SDS011;45058;55.772;38.224;2024-02-26T02:28:46;8.73;;;3.70;;
58240;SDS011;45058;55.772;38.224;2024-02-26T02:31:13;5.77;;;2.93;;
58240;SDS011;45058;55.772;38.224;2024-02-26T02:33:40;6.23;;;2.83;;
58240;SDS011;45058;55.772;38.224;2024-02-26T02:36:06;6.20;;;3.07;;
58240;SDS011;45058;55.772;38.224;2024-02-26T02:38:36;6.53;;;3.20;;
58240;SDS011;45058;55.772;38.224;2024-02-26T02:41:02;10.33;;;3.67;;
58240;SDS011;45058;55.772;38.224;2024-02-26T02:43:28;9.67;;;3.43;;
58240;SDS011;45058;55.772;38.224;2024-02-26T02:45:54;9.20;;;3.30;;
58240;SDS011;45058;55.772;38.224;2024-02-26T02:48:20;7.63;;;3.90;;
58240;SDS011;45058;55.772;38.224;2024-02-26T02:50:46;9.77;;;4.10;;
58240;SDS011;45058;55.772;38.224;2024-02-26T02:53:12;7.40;;;3.13;;
58240;SDS011;45058;55.772;38.224;2024-02-26T02:55:38;7.03;;;2.93;;
58240;SDS011;45058;55.772;38.224;2024-02-26T02:58:04;8.00;;;3.50;;
58240;SDS011;45058;55.772;38.224;2024-02-26T03:00:30;7.47;;;3.73;;
58240;SDS011;45058;55.772;38.224;2024-02-26T03:02:56;7.60;;;3.20;;
58240;SDS011;45058;55.772;38.224;2024-02-26T03:05:25;7.47;;;3.27;;
58240;SDS011;45058;55.772;38.224;2024-02-26T03:07:50;6.77;;;3.20;;
58240;SDS011;45058;55.772;38.224;2024-02-26T03:10:18;5.57;;;2.73;;
58240;SDS011;45058;55.772;38.224;2024-02-26T03:12:45;8.63;;;3.77;;
58240;SDS011;45058;55.772;38.224;2024-02-26T03:15:11;8.43;;;3.33;;
58240;SDS011;45058;55.772;38.224;2024-02-26T03:17:37;14.23;;;3.53;;
58240;SDS011;45058;55.772;38.224;2024-02-26T03:20:03;6.40;;;3.00;;
58240;SDS011;45058;55.772;38.224;2024-02-26T03:22:31;7.77;;;3.83;;
58240;SDS011;45058;55.772;38.224;2024-02-26T03:24:57;8.77;;;3.67;;
58240;SDS011;45058;55.772;38.224;2024-02-26T03:27:23;6.73;;;2.97;;
58240;SDS011;45058;55.772;38.224;2024-02-26T03:29:49;8.27;;;3.53;;
58240;SDS011;45058;55.772;38.224;2024-02-26T03:32:15;10.23;;;3.67;;
58240;SDS011;45058;55.772;38.224;2024-02-26T03:34:43;10.07;;;3.80;;
58240;SDS011;45058;55.772;38.224;2024-02-26T03:37:09;6.97;;;3.07;;
58240;SDS011;45058;55.772;38.224;2024-02-26T03:39:36;6.57;;;3.07;;
58240;SDS011;45058;55.772;38.224;2024-02-26T03:42:03;7.40;;;3.50;;
58240;SDS011;45058;55.772;38.224;2024-02-26T03:44:29;11.00;;;3.80;;
58240;SDS011;45058;55.772;38.224;2024-02-26T03:46:55;7.43;;;3.47;;
58240;SDS011;45058;55.772;38.224;2024-02-26T03:49:21;8.83;;;3.77;;
58240;SDS011;45058;55.772;38.224;2024-02-26T03:51:48;11.63;;;3.57;;
58240;SDS011;45058;55.772;38.224;2024-02-26T03:54:14;9.27;;;3.67;;
58240;SDS011;45058;55.772;38.224;2024-02-26T03:56:40;8.13;;;3.87;;
58240;SDS011;45058;55.772;38.224;2024-02-26T03:59:06;11.70;;;3.70;;
58240;SDS011;45058;55.772;38.224;2024-02-26T04:01:32;11.87;;;3.70;;
58240;SDS011;45058;55.772;38.224;2024-02-26T04:03:58;12.63;;;4.57;;
58240;SDS011;45058;55.772;38.224;2024-02-26T04:06:27;10.33;;;3.57;;
58240;SDS011;45058;55.772;38.224;2024-02-26T04:08:52;7.40;;;3.33;;
58240;SDS011;45058;55.772;38.224;2024-02-26T04:11:18;11.23;;;3.80;;
58240;SDS011;45058;55.772;38.224;2024-02-26T04:13:46;8.20;;;3.73;;
58240;SDS011;45058;55.772;38.224;2024-02-26T04:16:15;9.17;;;4.27;;
58240;SDS011;45058;55.772;38.224;2024-02-26T04:18:42;10.77;;;3.93;;
58240;SDS011;45058;55.772;38.224;2024-02-26T04:21:08;8.30;;;3.73;;
58240;SDS011;45058;55.772;38.224;2024-02-26T04:23:34;15.33;;;4.73;;
58240;SDS011;45058;55.772;38.224;2024-02-26T04:26:00;11.67;;;3.90;;
58240;SDS011;45058;55.772;38.224;2024-02-26T04:28:26;11.60;;;4.47;;
58240;SDS011;45058;55.772;38.224;2024-02-26T04:30:55;8.43;;;3.93;;
58240;SDS011;45058;55.772;38.224;2024-02-26T04:33:22;11.57;;;4.43;;
58240;SDS011;45058;55.772;38.224;2024-02-26T04:35:48;8.77;;;4.40;;
58240;SDS011;45058;55.772;38.224;2024-02-26T04:38:14;9.10;;;4.07;;
58240;SDS011;45058;55.772;38.224;2024-02-26T04:40:40;11.43;;;4.67;;
58240;SDS011;45058;55.772;38.224;2024-02-26T04:43:06;9.77;;;4.33;;
58240;SDS011;45058;55.772;38.224;2024-02-26T04:45:32;9.03;;;4.10;;
58240;SDS011;45058;55.772;38.224;2024-02-26T04:47:59;13.37;;;3.93;;
58240;SDS011;45058;55.772;38.224;2024-02-26T04:50:25;8.60;;;4.30;;
58240;SDS011;45058;55.772;38.224;2024-02-26T04:52:51;9.73;;;4.40;;
58240;SDS011;45058;55.772;38.224;2024-02-26T04:55:17;9.53;;;5.00;;
58240;SDS011;45058;55.772;38.224;2024-02-26T04:57:44;14.03;;;4.87;;
58240;SDS011;45058;55.772;38.224;2024-02-26T05:00:10;11.67;;;3.87;;
58240;SDS011;45058;55.772;38.224;2024-02-26T05:02:37;10.70;;;4.07;;
58240;SDS011;45058;55.772;38.224;2024-02-26T05:05:05;14.53;;;5.30;;
58240;SDS011;45058;55.772;38.224;2024-02-26T05:07:31;8.27;;;4.17;;
58240;SDS011;45058;55.772;38.224;2024-02-26T05:09:58;13.50;;;5.00;;
58240;SDS011;45058;55.772;38.224;2024-02-26T05:12:24;12.73;;;3.90;;
58240;SDS011;45058;55.772;38.224;2024-02-26T05:14:51;11.20;;;4.50;;
58240;SDS011;45058;55.772;38.224;2024-02-26T05:17:17;8.67;;;4.47;;
58240;SDS011;45058;55.772;38.224;2024-02-26T05:19:43;8.10;;;4.43;;
58240;SDS011;45058;55.772;38.224;2024-02-26T05:22:09;8.70;;;4.67;;
58240;SDS011;45058;55.772;38.224;2024-02-26T05:24:37;10.77;;;4.17;;
58240;SDS011;45058;55.772;38.224;2024-02-26T05:27:04;9.70;;;4.43;;
58240;SDS011;45058;55.772;38.224;2024-02-26T05:29:30;8.23;;;3.93;;
58240;SDS011;45058;55.772;38.224;2024-02-26T05:31:56;11.27;;;4.30;;
58240;SDS011;45058;55.772;38.224;2024-02-26T05:34:22;12.60;;;4.10;;
58240;SDS011;45058;55.772;38.224;2024-02-26T05:36:48;9.87;;;4.60;;
58240;SDS011;45058;55.772;38.224;2024-02-26T05:39:14;9.67;;;3.63;;
58240;SDS011;45058;55.772;38.224;2024-02-26T05:41:41;10.97;;;4.20;;
58240;SDS011;45058;55.772;38.224;2024-02-26T05:44:09;11.13;;;4.30;;
58240;SDS011;45058;55.772;38.224;2024-02-26T05:46:36;13.20;;;4.33;;
58240;SDS011;45058;55.772;38.224;2024-02-26T05:49:02;9.57;;;4.40;;
58240;SDS011;45058;55.772;38.224;2024-02-26T05:51:28;8.20;;;4.20;;
58240;SDS011;45058;55.772;38.224;2024-02-26T05:53:54;9.57;;;4.50;;
58240;SDS011;45058;55.772;38.224;2024-02-26T05:56:21;11.10;;;4.17;;
58240;SDS011;45058;55.772;38.224;2024-02-26T05:58:48;8.97;;;4.47;;
58240;SDS011;45058;55.772;38.224;2024-02-26T06:01:15;8.10;;;4.00;;
58240;SDS011;45058;55.772;38.224;2024-02-26T06:03:43;8.03;;;3.70;;
58240;SDS011;45058;55.772;38.224;2024-02-26T06:06:10;9.53;;;3.77;;
58240;SDS011;45058;55.772;38.224;2024-02-26T06:08:37;11.67;;;4.53;;
58240;SDS011;45058;55.772;38.224;2024-02-26T06:11:06;10.57;;;4.90;;
58240;SDS011;45058;55.772;38.224;2024-02-26T06:13:33;11.20;;;5.27;;
58240;SDS011;45058;55.772;38.224;2024-02-26T06:16:02;9.30;;;4.43;;
58240;SDS011;45058;55.772;38.224;2024-02-26T06:18:28;10.93;;;4.77;;
58240;SDS011;45058;55.772;38.224;2024-02-26T06:20:55;9.43;;;3.93;;
58240;SDS011;45058;55.772;38.224;2024-02-26T06:23:21;8.17;;;4.03;;
58240;SDS011;45058;55.772;38.224;2024-02-26T06:25:47;21.93;;;5.47;;
58240;SDS011;45058;55.772;38.224;2024-02-26T06:28:13;11.67;;;5.67;;
58240;SDS011;45058;55.772;38.224;2024-02-26T06:30:40;7.63;;;4.00;;
58240;SDS011;45058;55.772;38.224;2024-02-26T06:33:06;10.83;;;4.57;;
58240;SDS011;45058;55.772;38.224;2024-02-26T06:35:32;9.77;;;4.50;;
58240;SDS011;45058;55.772;38.224;2024-02-26T06:37:58;9.73;;;4.57;;
58240;SDS011;45058;55.772;38.224;2024-02-26T06:40:24;10.40;;;4.83;;
58240;SDS011;45058;55.772;38.224;2024-02-26T06:42:51;12.43;;;4.77;;
58240;SDS011;45058;55.772;38.224;2024-02-26T06:45:17;11.03;;;5.70;;
58240;SDS011;45058;55.772;38.224;2024-02-26T06:47:45;14.30;;;5.33;;
58240;SDS011;45058;55.772;38.224;2024-02-26T06:50:11;10.13;;;5.00;;
58240;SDS011;45058;55.772;38.224;2024-02-26T06:52:39;12.60;;;5.50;;
58240;SDS011;45058;55.772;38.224;2024-02-26T06:55:05;12.67;;;5.07;;
58240;SDS011;45058;55.772;38.224;2024-02-26T06:57:34;13.67;;;4.57;;
58240;SDS011;45058;55.772;38.224;2024-02-26T07:00:00;11.73;;;5.10;;
58240;SDS011;45058;55.772;38.224;2024-02-26T07:02:26;10.80;;;4.13;;
58240;SDS011;45058;55.772;38.224;2024-02-26T07:04:52;11.67;;;4.57;;
58240;SDS011;45058;55.772;38.224;2024-02-26T07:07:18;19.23;;;5.17;;
58240;SDS011;45058;55.772;38.224;2024-02-26T07:09:44;10.07;;;4.47;;
58240;SDS011;45058;55.772;38.224;2024-02-26T07:12:10;9.73;;;4.53;;
58240;SDS011;45058;55.772;38.224;2024-02-26T07:14:37;9.83;;;4.50;;
58240;SDS011;45058;55.772;38.224;2024-02-26T07:17:03;7.77;;;4.57;;
58240;SDS011;45058;55.772;38.224;2024-02-26T07:19:29;12.37;;;4.77;;
58240;SDS011;45058;55.772;38.224;2024-02-26T07:21:55;15.60;;;4.10;;
58240;SDS011;45058;55.772;38.224;2024-02-26T07:24:21;12.90;;;5.47;;
58240;SDS011;45058;55.772;38.224;2024-02-26T07:26:48;11.80;;;5.10;;
58240;SDS011;45058;55.772;38.224;2024-02-26T07:29:14;15.37;;;4.70;;
58240;SDS011;45058;55.772;38.224;2024-02-26T07:31:40;19.40;;;5.00;;
58240;SDS011;45058;55.772;38.224;2024-02-26T07:34:09;15.57;;;4.93;;
58240;SDS011;45058;55.772;38.224;2024-02-26T07:36:35;10.43;;;4.93;;
58240;SDS011;45058;55.772;38.224;2024-02-26T07:39:01;9.30;;;4.10;;
58240;SDS011;45058;55.772;38.224;2024-02-26T07:41:30;9.63;;;4.67;;
58240;SDS011;45058;55.772;38.224;2024-02-26T07:43:57;11.07;;;6.10;;
58240;SDS011;45058;55.772;38.224;2024-02-26T07:46:23;9.40;;;4.20;;
58240;SDS011;45058;55.772;38.224;2024-02-26T07:48:49;9.80;;;4.23;;
58240;SDS011;45058;55.772;38.224;2024-02-26T07:51:15;8.50;;;4.50;;
58240;SDS011;45058;55.772;38.224;2024-02-26T07:53:42;11.20;;;4.17;;
58240;SDS011;45058;55.772;38.224;2024-02-26T07:56:09;15.07;;;5.13;;
58240;SDS011;45058;55.772;38.224;2024-02-26T07:58:35;10.70;;;4.60;;
58240;SDS011;45058;55.772;38.224;2024-02-26T08:01:01;12.57;;;4.43;;
58240;SDS011;45058;55.772;38.224;2024-02-26T08:03:28;10.10;;;4.73;;
58240;SDS011;45058;55.772;38.224;2024-02-26T08:05:56;8.63;;;4.30;;
58240;SDS011;45058;55.772;38.224;2024-02-26T08:08:22;11.17;;;4.60;;
58240;SDS011;45058;55.772;38.224;2024-02-26T08:10:49;9.97;;;4.40;;
58240;SDS011;45058;55.772;38.224;2024-02-26T08:13:15;13.80;;;5.37;;
58240;SDS011;45058;55.772;38.224;2024-02-26T08:15:41;15.07;;;5.07;;
58240;SDS011;45058;55.772;38.224;2024-02-26T08:18:08;18.77;;;5.37;;
58240;SDS011;45058;55.772;38.224;2024-02-26T08:20:34;7.03;;;4.17;;
58240;SDS011;45058;55.772;38.224;2024-02-26T08:23:00;15.93;;;5.70;;
58240;SDS011;45058;55.772;38.224;2024-02-26T08:25:27;12.03;;;5.07;;
58240;SDS011;45058;55.772;38.224;2024-02-26T08:27:56;11.43;;;4.80;;
58240;SDS011;45058;55.772;38.224;2024-02-26T08:30:22;13.17;;;5.83;;
58240;SDS011;45058;55.772;38.224;2024-02-26T08:32:48;12.50;;;4.50;;
58240;SDS011;45058;55.772;38.224;2024-02-26T08:35:15;12.33;;;4.40;;
58240;SDS011;45058;55.772;38.224;2024-02-26T08:37:44;13.63;;;5.47;;
58240;SDS011;45058;55.772;38.224;2024-02-26T08:40:11;11.23;;;4.77;;
58240;SDS011;45058;55.772;38.224;2024-02-26T08:42:38;12.07;;;5.10;;
58240;SDS011;45058;55.772;38.224;2024-02-26T08:45:05;10.17;;;4.70;;
58240;SDS011;45058;55.772;38.224;2024-02-26T08:47:36;10.17;;;4.50;;
58240;SDS011;45058;55.772;38.224;2024-02-26T08:50:08;12.23;;;4.90;;
58240;SDS011;45058;55.772;38.224;2024-02-26T08:52:35;19.53;;;6.07;;
58240;SDS011;45058;55.772;38.224;2024-02-26T08:55:05;15.03;;;5.60;;
58240;SDS011;45058;55.772;38.224;2024-02-26T08:57:35;11.30;;;4.50;;
58240;SDS011;45058;55.772;38.224;2024-02-26T09:00:01;13.87;;;5.10;;
58240;SDS011;45058;55.772;38.224;2024-02-26T09:02:33;11.97;;;5.63;;
58240;SDS011;45058;55.772;38.224;2024-02-26T09:05:03;10.73;;;4.87;;
58240;SDS011;45058;55.772;38.224;2024-02-26T09:07:29;11.37;;;4.77;;
58240;SDS011;45058;55.772;38.224;2024-02-26T09:09:56;11.60;;;5.07;;
58240;SDS011;45058;55.772;38.224;2024-02-26T09:12:25;12.57;;;5.07;;
58240;SDS011;45058;55.772;38.224;2024-02-26T09:14:51;11.87;;;5.90;;
58240;SDS011;45058;55.772;38.224;2024-02-26T09:17:18;8.90;;;4.80;;
58240;SDS011;45058;55.772;38.224;2024-02-26T09:19:53;10.35;;;5.43;;
58240;SDS011;45058;55.772;38.224;2024-02-26T09:22:22;10.30;;;4.70;;
58240;SDS011;45058;55.772;38.224;2024-02-26T09:24:48;14.07;;;5.33;;
58240;SDS011;45058;55.772;38.224;2024-02-26T09:27:19;17.77;;;5.60;;
58240;SDS011;45058;55.772;38.224;2024-02-26T09:29:46;18.73;;;5.73;;
58240;SDS011;45058;55.772;38.224;2024-02-26T09:32:13;14.33;;;5.47;;
58240;SDS011;45058;55.772;38.224;2024-02-26T09:34:42;8.97;;;4.67;;
58240;SDS011;45058;55.772;38.224;2024-02-26T09:37:11;12.17;;;4.80;;
58240;SDS011;45058;55.772;38.224;2024-02-26T09:39:40;10.33;;;4.87;;
58240;SDS011;45058;55.772;38.224;2024-02-26T10:11:46;14.43;;;6.05;;
58240;SDS011;45058;55.772;38.224;2024-02-26T10:14:16;16.20;;;5.53;;
58240;SDS011;45058;55.772;38.224;2024-02-26T10:16:43;13.07;;;5.57;;
58240;SDS011;45058;55.772;38.224;2024-02-26T10:19:09;12.20;;;5.07;;
58240;SDS011;45058;55.772;38.224;2024-02-26T10:21:58;12.47;;;5.27;;
58240;SDS011;45058;55.772;38.224;2024-02-26T10:24:26;9.47;;;5.33;;
58240;SDS011;45058;55.772;38.224;2024-02-26T13:24:25;10.80;;;4.85;;
58240;SDS011;45058;55.772;38.224;2024-02-26T13:26:55;11.27;;;4.17;;
58240;SDS011;45058;55.772;38.224;2024-02-26T13:29:23;11.53;;;4.63;;
58240;SDS011;45058;55.772;38.224;2024-02-26T13:32:00;8.90;;;4.50;;
58240;SDS011;45058;55.772;38.224;2024-02-26T13:34:28;9.43;;;3.63;;
58240;SDS011;45058;55.772;38.224;2024-02-26T13:36:59;9.00;;;4.80;;
58240;SDS011;45058;55.772;38.224;2024-02-26T13:39:30;10.63;;;4.20;;
58240;SDS011;45058;55.772;38.224;2024-02-26T13:41:57;11.50;;;4.37;;
58240;SDS011;45058;55.772;38.224;2024-02-26T13:44:25;9.43;;;4.00;;
58240;SDS011;45058;55.772;38.224;2024-02-26T13:46:52;9.33;;;4.37;;
58240;SDS011;45058;55.772;38.224;2024-02-26T13:49:30;10.97;;;4.50;;
58240;SDS011;45058;55.772;38.224;2024-02-26T13:51:57;9.43;;;3.83;;
58240;SDS011;45058;55.772;38.224;2024-02-26T13:54:23;11.00;;;4.77;;
58240;SDS011;45058;55.772;38.224;2024-02-26T13:56:50;10.07;;;4.33;;
58240;SDS011;45058;55.772;38.224;2024-02-26T13:59:18;9.20;;;4.60;;
58240;SDS011;45058;55.772;38.224;2024-02-26T14:01:49;11.83;;;4.90;;
58240;SDS011;45058;55.772;38.224;2024-02-26T14:04:16;15.70;;;4.90;;
58240;SDS011;45058;55.772;38.224;2024-02-26T14:06:44;8.33;;;3.93;;
58240;SDS011;45058;55.772;38.224;2024-02-26T14:09:14;15.23;;;4.43;;
58240;SDS011;45058;55.772;38.224;2024-02-26T14:11:48;16.17;;;4.97;;
58240;SDS011;45058;55.772;38.224;2024-02-26T14:14:15;10.17;;;4.57;;
58240;SDS011;45058;55.772;38.224;2024-02-26T14:16:46;11.10;;;4.50;;
58240;SDS011;45058;55.772;38.224;2024-02-26T14:19:16;13.27;;;4.47;;
58240;SDS011;45058;55.772;38.224;2024-02-26T14:21:42;10.50;;;4.37;;
58240;SDS011;45058;55.772;38.224;2024-02-26T14:24:08;17.10;;;5.37;;
58240;SDS011;45058;55.772;38.224;2024-02-26T14:26:37;9.90;;;3.93;;
58240;SDS011;45058;55.772;38.224;2024-02-26T14:29:23;10.97;;;4.87;;
58240;SDS011;45058;55.772;38.224;2024-02-26T14:31:52;12.13;;;4.80;;
58240;SDS011;45058;55.772;38.224;2024-02-26T14:34:19;11.17;;;4.43;;
58240;SDS011;45058;55.772;38.224;2024-02-26T14:36:47;8.73;;;4.33;;
58240;SDS011;45058;55.772;38.224;2024-02-26T14:39:14;7.67;;;4.37;;
58240;SDS011;45058;55.772;38.224;2024-02-26T14:41:46;12.10;;;4.00;;
58240;SDS011;45058;55.772;38.224;2024-02-26T14:44:12;9.07;;;4.03;;
58240;SDS011;45058;55.772;38.224;2024-02-26T14:46:51;10.13;;;4.07;;
58240;SDS011;45058;55.772;38.224;2024-02-26T14:49:21;10.57;;;4.33;;
58240;SDS011;45058;55.772;38.224;2024-02-26T14:51:51;12.07;;;4.33;;
58240;SDS011;45058;55.772;38.224;2024-02-26T14:54:19;9.60;;;4.03;;
58240;SDS011;45058;55.772;38.224;2024-02-26T14:56:46;11.23;;;4.63;;
58240;SDS011;45058;55.772;38.224;2024-02-26T14:59:19;10.00;;;4.10;;
58240;SDS011;45058;55.772;38.224;2024-02-26T15:01:46;8.07;;;3.83;;
58240;SDS011;45058;55.772;38.224;2024-02-26T15:04:17;9.40;;;4.10;;
58240;SDS011;45058;55.772;38.224;2024-02-26T15:06:49;9.93;;;3.93;;
58240;SDS011;45058;55.772;38.224;2024-02-26T15:11:55;10.77;;;4.33;;
58240;SDS011;45058;55.772;38.224;2024-02-26T15:14:24;10.53;;;4.50;;
58240;SDS011;45058;55.772;38.224;2024-02-26T15:16:52;7.77;;;3.67;;
58240;SDS011;45058;55.772;38.224;2024-02-26T15:19:18;10.63;;;4.17;;
58240;SDS011;45058;55.772;38.224;2024-02-26T15:21:53;11.43;;;4.40;;
58240;SDS011;45058;55.772;38.224;2024-02-26T15:24:19;12.47;;;4.53;;
58240;SDS011;45058;55.772;38.224;2024-02-26T15:26:52;10.20;;;4.30;;
58240;SDS011;45058;55.772;38.224;2024-02-26T15:29:21;12.90;;;4.53;;
58240;SDS011;45058;55.772;38.224;2024-02-26T15:31:52;10.10;;;4.60;;
58240;SDS011;45058;55.772;38.224;2024-02-26T15:34:22;11.37;;;4.80;;
58240;SDS011;45058;55.772;38.224;2024-02-26T15:36:52;12.13;;;4.43;;
58240;SDS011;45058;55.772;38.224;2024-02-26T15:39:21;10.83;;;4.57;;
58240;SDS011;45058;55.772;38.224;2024-02-26T15:41:54;16.87;;;4.70;;
58240;SDS011;45058;55.772;38.224;2024-02-26T15:44:24;13.73;;;4.57;;
58240;SDS011;45058;55.772;38.224;2024-02-26T15:46:56;11.80;;;5.00;;
58240;SDS011;45058;55.772;38.224;2024-02-26T15:49:23;14.90;;;4.47;;
58240;SDS011;45058;55.772;38.224;2024-02-26T15:51:54;22.53;;;5.03;;
58240;SDS011;45058;55.772;38.224;2024-02-26T15:54:26;13.97;;;4.53;;
58240;SDS011;45058;55.772;38.224;2024-02-26T15:56:53;12.33;;;4.40;;
58240;SDS011;45058;55.772;38.224;2024-02-26T15:59:21;12.50;;;4.13;;
58240;SDS011;45058;55.772;38.224;2024-02-26T16:01:50;15.17;;;4.93;;
58240;SDS011;45058;55.772;38.224;2024-02-26T16:04:20;12.73;;;4.37;;
58240;SDS011;45058;55.772;38.224;2024-02-26T16:07:06;12.50;;;4.97;;
58240;SDS011;45058;55.772;38.224;2024-02-26T16:09:55;10.87;;;4.63;;
58240;SDS011;45058;55.772;38.224;2024-02-26T16:12:35;20.37;;;5.20;;
58240;SDS011;45058;55.772;38.224;2024-02-26T16:15:07;15.97;;;4.07;;
58240;SDS011;45058;55.772;38.224;2024-02-26T16:17:36;13.67;;;4.27;;
58240;SDS011;45058;55.772;38.224;2024-02-26T16:20:14;16.87;;;4.30;;
58240;SDS011;45058;55.772;38.224;2024-02-26T16:22:50;14.43;;;4.17;;
58240;SDS011;45058;55.772;38.224;2024-02-26T16:25:22;14.40;;;4.47;;
58240;SDS011;45058;55.772;38.224;2024-02-26T16:27:55;13.63;;;5.10;;
58240;SDS011;45058;55.772;38.224;2024-02-26T16:30:34;16.10;;;5.40;;
58240;SDS011;45058;55.772;38.224;2024-02-26T16:33:03;20.30;;;5.40;;
58240;SDS011;45058;55.772;38.224;2024-02-26T16:35:39;21.00;;;5.18;;
58240;SDS011;45058;55.772;38.224;2024-02-26T16:38:10;20.60;;;5.27;;
58240;SDS011;45058;55.772;38.224;2024-02-26T16:40:40;19.10;;;6.00;;
58240;SDS011;45058;55.772;38.224;2024-02-26T16:43:11;10.57;;;5.60;;
58240;SDS011;45058;55.772;38.224;2024-02-26T16:45:43;14.47;;;4.33;;
58240;SDS011;45058;55.772;38.224;2024-02-26T16:48:15;17.30;;;5.30;;
58240;SDS011;45058;55.772;38.224;2024-02-26T16:50:45;11.50;;;4.80;;
58240;SDS011;45058;55.772;38.224;2024-02-26T16:53:12;12.93;;;4.70;;
58240;SDS011;45058;55.772;38.224;2024-02-26T16:55:40;20.27;;;5.00;;
58240;SDS011;45058;55.772;38.224;2024-02-26T16:58:22;17.63;;;5.10;;
58240;SDS011;45058;55.772;38.224;2024-02-26T17:00:54;18.27;;;5.23;;
58240;SDS011;45058;55.772;38.224;2024-02-26T17:03:23;22.23;;;5.50;;
58240;SDS011;45058;55.772;38.224;2024-02-26T17:05:56;16.10;;;5.47;;
58240;SDS011;45058;55.772;38.224;2024-02-26T17:08:27;21.13;;;6.23;;
58240;SDS011;45058;55.772;38.224;2024-02-26T17:11:37;16.00;;;6.40;;
58240;SDS011;45058;55.772;38.224;2024-02-26T17:14:04;15.77;;;5.90;;
58240;SDS011;45058;55.772;38.224;2024-02-26T17:16:42;17.70;;;5.47;;
58240;SDS011;45058;55.772;38.224;2024-02-26T17:19:09;15.00;;;5.23;;
58240;SDS011;45058;55.772;38.224;2024-02-26T17:21:42;15.00;;;5.40;;
58240;SDS011;45058;55.772;38.224;2024-02-26T17:24:12;14.23;;;5.50;;
58240;SDS011;45058;55.772;38.224;2024-02-26T17:26:46;14.80;;;5.03;;
58240;SDS011;45058;55.772;38.224;2024-02-26T17:29:16;16.40;;;5.87;;
58240;SDS011;45058;55.772;38.224;2024-02-26T17:31:44;19.97;;;6.40;;
58240;SDS011;45058;55.772;38.224;2024-02-26T17:34:16;18.57;;;5.27;;
58240;SDS011;45058;55.772;38.224;2024-02-26T17:36:42;15.70;;;6.40;;
58240;SDS011;45058;55.772;38.224;2024-02-26T17:39:09;13.97;;;5.23;;
58240;SDS011;45058;55.772;38.224;2024-02-26T17:41:36;16.03;;;5.47;;
58240;SDS011;45058;55.772;38.224;2024-02-26T17:44:04;14.03;;;5.13;;
58240;SDS011;45058;55.772;38.224;2024-02-26T17:46:31;8.93;;;4.67;;
58240;SDS011;45058;55.772;38.224;2024-02-26T17:49:00;14.60;;;5.33;;
58240;SDS011;45058;55.772;38.224;2024-02-26T17:51:35;17.17;;;5.00;;
58240;SDS011;45058;55.772;38.224;2024-02-26T17:54:03;19.07;;;4.77;;
58240;SDS011;45058;55.772;38.224;2024-02-26T17:56:30;17.13;;;5.13;;
58240;SDS011;45058;55.772;38.224;2024-02-26T17:58:59;11.50;;;5.50;;